Time;durP1;ratioP1;P1;durP2;ratioP2;P2;SDS_P1;SDS_P2;PMS_P1;PMS_P2;Temp;Humidity;BMP_temperature;BMP_pressure;BME280_temperature;BME280_humidity;BME280_pressure;Samples;Min_cycle;Max_cycle;Signal;HPM_P1;HPM_P2
2023/11/28 00:01:44;;;;;;;14.20;8.30;;;;;;;-1.91;84.84;94324.94;106633;1276;24275;-79
2023/11/28 00:04:13;;;;;;;16.40;9.40;;;;;;;-1.88;84.51;94328.06;106510;1264;22524;-79
2023/11/28 00:06:41;;;;;;;16.10;9.90;;;;;;;-1.88;84.56;94312.21;106582;1276;24265;-80
2023/11/28 00:09:10;;;;;;;14.10;9.40;;;;;;;-1.84;84.60;94316.20;106622;1276;24246;-79
2023/11/28 00:11:38;;;;;;;13.60;8.70;;;;;;;-1.87;84.11;94314.28;106566;1276;25296;-79
2023/11/28 00:14:07;;;;;;;20.00;10.70;;;;;;;-1.90;84.44;94310.81;106626;1276;22647;-79
2023/11/28 00:16:35;;;;;;;16.00;10.20;;;;;;;-1.85;84.81;94305.33;106637;1276;22638;-80
2023/11/28 00:19:03;;;;;;;19.90;11.70;;;;;;;-1.76;84.75;94310.92;106597;1276;22519;-80
2023/11/28 00:21:32;;;;;;;17.60;10.90;;;;;;;-1.79;84.31;94304.02;106636;1276;22543;-79
2023/11/28 00:24:02;;;;;;;21.40;11.90;;;;;;;-1.75;84.48;94295.77;106681;1276;23900;-79
2023/11/28 00:26:30;;;;;;;26.30;14.90;;;;;;;-1.76;84.14;94301.10;106690;1276;22547;-79
2023/11/28 00:29:00;;;;;;;22.60;12.10;;;;;;;-1.80;84.17;94303.83;106637;1276;25503;-79
2023/11/28 00:31:28;;;;;;;14.90;9.30;;;;;;;-1.81;83.82;94303.14;106647;1267;22528;-79
2023/11/28 00:33:57;;;;;;;17.80;10.70;;;;;;;-1.80;84.06;94296.59;106603;1276;22648;-78
2023/11/28 00:36:25;;;;;;;16.30;9.60;;;;;;;-1.78;84.26;94294.88;106532;1276;22537;-79
2023/11/28 00:38:53;;;;;;;16.20;11.00;;;;;;;-1.79;84.16;94294.17;106684;1276;22536;-80
2023/11/28 00:41:24;;;;;;;14.30;8.90;;;;;;;-1.79;83.97;94291.08;106631;1276;22562;-79
2023/11/28 00:43:54;;;;;;;17.10;10.30;;;;;;;-1.85;84.07;94285.70;106507;1253;25562;-79
2023/11/28 00:46:22;;;;;;;16.20;10.70;;;;;;;-1.83;84.04;94288.65;106744;1276;22534;-79
2023/11/28 00:48:51;;;;;;;14.60;8.90;;;;;;;-1.85;84.00;94275.01;106617;1276;22689;-79
2023/11/28 00:51:19;;;;;;;14.00;9.30;;;;;;;-1.88;83.79;94272.23;106649;1276;25517;-79
2023/11/28 00:53:47;;;;;;;16.30;8.80;;;;;;;-1.96;84.33;94262.17;106620;1276;24228;-80
2023/11/28 00:56:19;;;;;;;16.70;9.90;;;;;;;-2.04;84.72;94256.41;106567;1276;25469;-79
2023/11/28 00:58:48;;;;;;;14.80;9.20;;;;;;;-2.08;84.54;94252.25;106559;1276;24218;-79
2023/11/28 01:01:18;;;;;;;15.80;8.70;;;;;;;-2.11;84.48;94246.20;106725;1276;24396;-79
2023/11/28 01:03:46;;;;;;;18.10;10.40;;;;;;;-2.16;84.75;94234.95;106637;1276;24265;-79
2023/11/28 01:06:15;;;;;;;21.00;11.80;;;;;;;-2.20;85.54;94228.73;106610;1276;22529;-79
2023/11/28 01:08:44;;;;;;;21.40;11.40;;;;;;;-2.22;85.55;94228.20;106666;1276;24992;-80
2023/11/28 01:11:13;;;;;;;19.60;11.70;;;;;;;-2.19;85.24;94225.64;106634;1276;22777;-79
2023/11/28 01:13:41;;;;;;;22.00;11.70;;;;;;;-2.14;85.15;94217.05;106681;1276;22664;-79
2023/11/28 01:16:11;;;;;;;19.20;11.00;;;;;;;-2.13;85.53;94214.84;106597;1276;22542;-79
2023/11/28 01:18:39;;;;;;;19.10;10.30;;;;;;;-2.11;85.22;94207.77;106655;1276;22547;-79
2023/11/28 01:21:07;;;;;;;21.50;12.80;;;;;;;-2.13;85.26;94200.52;106634;1276;22525;-79
2023/11/28 01:23:36;;;;;;;25.60;14.00;;;;;;;-2.10;85.64;94196.76;106541;1276;24368;-79
2023/11/28 01:26:05;;;;;;;20.40;12.60;;;;;;;-2.11;86.01;94198.81;106559;1276;25317;-79
2023/11/28 01:28:34;;;;;;;23.70;12.80;;;;;;;-2.13;85.98;94190.02;106638;1276;22601;-79
2023/11/28 01:31:04;;;;;;;23.80;12.90;;;;;;;-2.13;86.15;94190.89;106615;1276;25270;-79
2023/11/28 01:33:34;;;;;;;21.60;11.80;;;;;;;-2.11;86.10;94187.98;106679;1276;23656;-79
2023/11/28 01:36:06;;;;;;;21.90;12.80;;;;;;;-2.05;86.22;94183.02;106664;1276;22519;-79
2023/11/28 01:38:37;;;;;;;26.50;13.70;;;;;;;-1.99;86.08;94183.57;106559;1276;22630;-79
2023/11/28 01:41:05;;;;;;;22.00;12.40;;;;;;;-1.99;85.78;94177.70;106633;1276;24377;-79
2023/11/28 01:43:34;;;;;;;17.40;11.20;;;;;;;-1.95;85.78;94163.10;106660;1276;25436;-79
2023/11/28 01:46:07;;;;;;;19.50;10.70;;;;;;;-1.95;85.42;94172.23;106628;1276;22655;-79
2023/11/28 01:48:36;;;;;;;21.90;12.90;;;;;;;-2.00;85.56;94162.72;106657;1276;22538;-79
2023/11/28 01:51:05;;;;;;;18.20;10.50;;;;;;;-1.97;85.72;94171.19;106590;1276;22522;-79
2023/11/28 01:53:35;;;;;;;18.90;12.00;;;;;;;-1.96;85.62;94163.09;106608;1276;25249;-79
2023/11/28 01:56:05;;;;;;;22.30;13.10;;;;;;;-1.91;85.65;94155.52;106519;1276;22621;-79
2023/11/28 01:58:33;;;;;;;19.50;11.70;;;;;;;-1.90;85.21;94157.27;106638;1276;25344;-79
2023/11/28 02:01:01;;;;;;;21.90;12.80;;;;;;;-1.88;85.20;94149.86;106658;1276;22523;-79
2023/11/28 02:03:31;;;;;;;20.40;11.20;;;;;;;-1.79;85.68;94149.39;106562;1276;22638;-79
2023/11/28 02:06:00;;;;;;;21.00;12.60;;;;;;;-1.83;85.20;94144.55;106616;1276;22563;-79
2023/11/28 02:08:28;;;;;;;19.40;12.40;;;;;;;-1.86;85.22;94139.71;106773;1276;22527;-79
2023/11/28 02:10:59;;;;;;;22.50;11.90;;;;;;;-1.88;85.21;94141.77;106538;1276;22637;-79
2023/11/28 02:13:30;;;;;;;26.70;14.10;;;;;;;-1.91;85.39;94141.58;106666;1276;24256;-79
2023/11/28 02:16:08;;;;;;;22.00;13.20;;;;;;;-1.88;85.46;94140.73;106334;1276;24246;-79
2023/11/28 02:18:37;;;;;;;21.40;11.50;;;;;;;-1.87;85.54;94141.77;106530;1276;24261;-79
2023/11/28 02:21:06;;;;;;;23.40;12.00;;;;;;;-1.98;85.42;94141.36;106712;1276;23757;-79
2023/11/28 02:23:34;;;;;;;20.30;12.10;;;;;;;-2.03;85.71;94137.55;106668;1276;22547;-79
2023/11/28 02:26:07;;;;;;;22.20;13.00;;;;;;;-2.04;85.82;94134.61;106602;1276;24356;-79
2023/11/28 02:28:36;;;;;;;20.20;11.20;;;;;;;-2.07;85.82;94140.79;106593;1262;25531;-79
2023/11/28 02:31:05;;;;;;;23.90;12.70;;;;;;;-2.11;86.13;94125.43;106328;1276;25269;-79
2023/11/28 02:33:33;;;;;;;21.70;12.50;;;;;;;-2.14;86.35;94124.55;106673;1276;24080;-79
2023/11/28 02:36:02;;;;;;;22.00;12.80;;;;;;;-2.19;86.58;94124.88;106612;1276;24078;-79
2023/11/28 02:38:31;;;;;;;24.60;12.80;;;;;;;-2.18;86.48;94119.72;106672;1276;22879;-79
2023/11/28 02:40:59;;;;;;;24.40;13.50;;;;;;;-2.18;86.38;94111.95;106575;1276;25306;-79
2023/11/28 02:43:27;;;;;;;26.40;12.90;;;;;;;-2.19;86.46;94113.85;106598;1276;22528;-78
2023/11/28 02:45:55;;;;;;;25.80;13.20;;;;;;;-2.18;86.31;94106.45;106554;1276;25230;-80
2023/11/28 02:48:25;;;;;;;25.50;13.80;;;;;;;-2.18;86.33;94100.08;106552;1276;24284;-78
2023/11/28 02:50:53;;;;;;;22.70;12.60;;;;;;;-2.20;86.31;94090.41;106665;1276;25326;-79
2023/11/28 02:53:22;;;;;;;23.50;13.50;;;;;;;-2.21;86.37;94089.55;106528;1276;25435;-79
2023/11/28 02:55:51;;;;;;;24.50;14.70;;;;;;;-2.21;86.41;94086.45;106602;1276;24381;-79
2023/11/28 02:58:19;;;;;;;20.20;11.70;;;;;;;-2.19;86.37;94084.23;106509;1276;24228;-79
2023/11/28 03:00:47;;;;;;;28.20;14.40;;;;;;;-2.17;86.48;94080.45;106574;1276;25706;-79
2023/11/28 03:03:15;;;;;;;26.70;14.90;;;;;;;-2.16;86.17;94078.04;106602;1276;22552;-79
2023/11/28 03:05:44;;;;;;;26.80;15.30;;;;;;;-2.14;86.20;94075.29;106577;1276;24296;-78
2023/11/28 03:08:13;;;;;;;23.30;12.70;;;;;;;-2.11;86.27;94070.82;106557;1253;22523;-79
2023/11/28 03:10:41;;;;;;;24.40;14.20;;;;;;;-2.09;86.20;94066.02;106630;1276;25504;-79
2023/11/28 03:13:09;;;;;;;22.40;12.80;;;;;;;-2.05;86.49;94062.41;106953;1276;24330;-79
2023/11/28 03:15:37;;;;;;;24.80;14.40;;;;;;;-1.98;86.55;94058.14;106742;1276;22559;-79
2023/11/28 03:18:08;;;;;;;23.80;13.60;;;;;;;-1.94;86.40;94061.61;106586;1276;22770;-79
2023/11/28 03:20:37;;;;;;;25.80;14.20;;;;;;;-1.92;86.34;94059.54;106676;1276;22535;-79
2023/11/28 03:23:05;;;;;;;24.20;14.10;;;;;;;-1.89;86.42;94050.42;106518;1276;25541;-79
2023/11/28 03:25:34;;;;;;;29.50;14.90;;;;;;;-1.89;86.23;94058.68;106645;1254;22545;-79
2023/11/28 03:28:03;;;;;;;27.10;14.10;;;;;;;-1.90;86.18;94049.90;106590;1276;22542;-79
2023/11/28 03:30:31;;;;;;;31.50;16.00;;;;;;;-1.90;86.08;94044.55;106549;1276;24274;-79
2023/11/28 03:32:59;;;;;;;31.30;16.10;;;;;;;-1.91;85.97;94041.63;106662;1276;24324;-79
2023/11/28 03:35:28;;;;;;;24.70;12.80;;;;;;;-1.89;86.14;94039.73;106739;1263;22775;-79
2023/11/28 03:37:57;;;;;;;42.90;18.00;;;;;;;-1.94;86.03;94029.90;106802;1276;24372;-79
2023/11/28 03:40:25;;;;;;;37.10;17.10;;;;;;;-1.93;85.99;94022.83;106659;1276;22803;-79
2023/11/28 03:42:54;;;;;;;23.10;13.60;;;;;;;-1.89;86.30;94007.00;106647;1276;22560;-79
2023/11/28 03:45:22;;;;;;;30.10;17.80;;;;;;;-1.84;86.16;94008.22;106594;1276;22669;-79
2023/11/28 03:47:50;;;;;;;31.10;17.40;;;;;;;-1.89;85.80;94000.45;106585;1276;22547;-79
2023/11/28 03:50:19;;;;;;;34.00;17.50;;;;;;;-1.90;85.67;93999.76;106339;1276;22540;-79
2023/11/28 03:52:47;;;;;;;25.30;13.10;;;;;;;-1.90;85.58;93991.31;106641;1276;24522;-79
2023/11/28 03:55:15;;;;;;;33.10;18.20;;;;;;;-1.96;85.57;93990.43;106563;1276;22537;-80
2023/11/28 03:57:43;;;;;;;31.20;16.40;;;;;;;-1.96;85.59;93986.98;106550;1276;24352;-79
2023/11/28 04:00:12;;;;;;;27.70;14.80;;;;;;;-1.94;85.82;93978.02;106689;1265;25462;-79
2023/11/28 04:02:41;;;;;;;27.10;14.90;;;;;;;-1.93;85.56;93983.71;106678;1276;25257;-80
2023/11/28 04:05:10;;;;;;;27.20;14.90;;;;;;;-1.93;85.44;93972.86;106325;1276;22809;-79
2023/11/28 04:07:38;;;;;;;24.00;14.00;;;;;;;-1.92;85.61;93965.61;106641;1275;22791;-79
2023/11/28 04:10:07;;;;;;;29.80;15.40;;;;;;;-1.94;85.26;93963.04;106545;1275;22531;-80
2023/11/28 04:12:36;;;;;;;32.70;18.30;;;;;;;-2.02;85.15;93953.36;106672;1276;23900;-80
2023/11/28 04:15:04;;;;;;;26.90;14.40;;;;;;;-2.03;85.39;93950.27;106596;1276;22534;-79
2023/11/28 04:17:32;;;;;;;22.20;13.00;;;;;;;-2.09;85.27;93954.02;106555;1276;22527;-81
2023/11/28 04:20:01;;;;;;;19.00;12.00;;;;;;;-2.19;85.67;93954.69;106618;1276;24225;-79
2023/11/28 04:22:29;;;;;;;21.00;13.00;;;;;;;-2.26;85.90;93947.43;106667;1276;24381;-80
2023/11/28 04:24:58;;;;;;;26.10;15.50;;;;;;;-2.31;86.13;93940.86;106627;1276;22999;-79
2023/11/28 04:27:27;;;;;;;24.10;13.90;;;;;;;-2.35;86.12;93937.92;106535;1276;24264;-78
2023/11/28 04:29:55;;;;;;;21.20;12.40;;;;;;;-2.43;86.37;93939.27;106682;1276;22526;-78
2023/11/28 04:32:24;;;;;;;40.20;21.50;;;;;;;-2.50;86.49;93933.39;106521;1276;24337;-78
2023/11/28 04:34:53;;;;;;;25.10;14.10;;;;;;;-2.54;86.29;93928.39;106532;1276;25591;-78
2023/11/28 04:37:21;;;;;;;34.80;18.90;;;;;;;-2.59;86.82;93929.23;106580;1276;22524;-79
2023/11/28 04:39:51;;;;;;;35.30;20.10;;;;;;;-2.63;87.12;93917.15;106562;1276;25306;-80
2023/11/28 04:42:19;;;;;;;53.10;24.50;;;;;;;-2.67;87.09;93918.85;106607;1276;22527;-79
2023/11/28 04:44:49;;;;;;;64.80;29.10;;;;;;;-2.71;87.09;93923.83;106680;1276;24468;-79
2023/11/28 04:47:17;;;;;;;39.90;19.70;;;;;;;-2.77;87.58;93909.85;106351;1276;25435;-79
2023/11/28 04:49:46;;;;;;;34.30;17.50;;;;;;;-2.79;87.54;93912.25;106659;1276;24378;-78
2023/11/28 04:52:14;;;;;;;45.70;22.20;;;;;;;-2.82;87.65;93915.69;106631;1265;24066;-79
2023/11/28 04:54:42;;;;;;;57.80;27.80;;;;;;;-2.85;88.34;93917.22;106681;1276;22651;-79
2023/11/28 04:57:10;;;;;;;38.60;20.80;;;;;;;-2.84;88.52;93911.36;106592;1276;23896;-79
2023/11/28 04:59:40;;;;;;;44.70;21.70;;;;;;;-2.83;88.60;93909.32;106575;1276;22531;-79
2023/11/28 05:02:08;;;;;;;56.70;26.30;;;;;;;-2.80;88.47;93906.41;106562;1253;22607;-79
2023/11/28 05:04:37;;;;;;;39.90;21.50;;;;;;;-2.80;88.80;93893.48;106348;1276;25290;-79
2023/11/28 05:07:05;;;;;;;41.30;21.40;;;;;;;-2.76;88.68;93899.02;106672;1276;25329;-79
2023/11/28 05:09:33;;;;;;;58.20;25.20;;;;;;;-2.74;88.49;93901.44;106595;1276;24051;-79
2023/11/28 05:12:02;;;;;;;50.10;23.40;;;;;;;-2.74;88.61;93890.77;106525;1276;23158;-79
2023/11/28 05:14:30;;;;;;;45.70;20.60;;;;;;;-2.73;88.49;93889.07;106620;1276;25806;-79
2023/11/28 05:16:58;;;;;;;29.20;13.80;;;;;;;-2.71;88.41;93883.89;106614;1276;24279;-79
2023/11/28 05:19:26;;;;;;;26.20;14.40;;;;;;;-2.68;88.16;93885.45;106656;1276;22526;-79
2023/11/28 05:21:55;;;;;;;33.40;16.30;;;;;;;-2.65;88.05;93873.59;106658;1276;22577;-79
2023/11/28 05:24:24;;;;;;;46.10;20.60;;;;;;;-2.65;88.26;93868.09;106635;1276;22543;-79
2023/11/28 05:26:53;;;;;;;39.80;18.50;;;;;;;-2.61;88.21;93867.60;106728;1276;22539;-79
2023/11/28 05:29:25;;;;;;;39.40;18.30;;;;;;;-2.58;88.17;93867.42;106551;1276;22536;-79
2023/11/28 05:31:54;;;;;;;45.30;23.30;;;;;;;-2.57;87.81;93867.08;106578;1276;22679;-79
2023/11/28 05:34:22;;;;;;;36.50;19.00;;;;;;;-2.57;87.88;93862.27;106584;1276;22611;-79
2023/11/28 05:36:51;;;;;;;38.40;18.20;;;;;;;-2.60;88.09;93861.56;106643;1276;22519;-79
2023/11/28 05:39:20;;;;;;;42.20;21.40;;;;;;;-2.58;88.13;93844.88;106534;1276;25498;-80
2023/11/28 05:41:48;;;;;;;45.00;21.90;;;;;;;-2.59;88.04;93843.48;106512;1276;25598;-80
2023/11/28 05:44:16;;;;;;;38.30;20.50;;;;;;;-2.57;88.08;93834.38;106550;1276;25194;-79
2023/11/28 05:46:45;;;;;;;39.70;19.90;;;;;;;-2.56;88.08;93832.33;106560;1276;22526;-81
2023/11/28 05:49:13;;;;;;;29.00;14.40;;;;;;;-2.55;87.92;93828.53;106556;1276;24396;-80
2023/11/28 05:51:41;;;;;;;43.10;21.20;;;;;;;-2.56;87.65;93823.88;106524;1276;24274;-80
2023/11/28 05:54:10;;;;;;;37.00;18.30;;;;;;;-2.56;87.74;93815.95;106707;1276;24924;-79
2023/11/28 05:56:38;;;;;;;40.50;20.10;;;;;;;-2.57;88.02;93808.91;106766;1276;25243;-80
2023/11/28 05:59:06;;;;;;;39.50;20.00;;;;;;;-2.57;88.07;93810.45;106652;1276;22615;-79
2023/11/28 06:01:34;;;;;;;38.70;19.10;;;;;;;-2.57;88.03;93809.25;106765;1276;24216;-79
2023/11/28 06:04:04;;;;;;;37.80;17.80;;;;;;;-2.57;88.00;93808.39;107555;1265;22547;-79
2023/11/28 06:06:32;;;;;;;35.10;20.10;;;;;;;-2.61;88.00;93802.02;109090;1276;22610;-81
2023/11/28 06:09:00;;;;;;;38.40;19.90;;;;;;;-2.60;88.03;93797.88;106734;1276;22641;-78
2023/11/28 06:11:29;;;;;;;48.00;26.00;;;;;;;-2.57;87.94;93800.64;106851;1276;25510;-79
2023/11/28 06:13:57;;;;;;;37.20;19.60;;;;;;;-2.54;88.00;93793.94;106600;1276;22517;-83
2023/11/28 06:16:25;;;;;;;39.50;20.70;;;;;;;-2.55;87.97;93791.34;106655;1276;22542;-80
2023/11/28 06:18:54;;;;;;;67.00;33.50;;;;;;;-2.56;87.83;93791.86;106627;1276;24279;-81
2023/11/28 06:21:22;;;;;;;48.70;23.50;;;;;;;-2.51;88.06;93789.12;107001;1276;22539;-80
2023/11/28 06:23:50;;;;;;;47.20;23.00;;;;;;;-2.47;87.90;93790.16;106698;1276;22530;-79
2023/11/28 06:26:18;;;;;;;63.40;27.60;;;;;;;-2.47;87.76;93784.13;106685;1276;24286;-79
2023/11/28 06:28:46;;;;;;;55.20;24.40;;;;;;;-2.43;87.73;93773.63;106942;1276;25358;-81
2023/11/28 06:31:16;;;;;;;53.80;26.30;;;;;;;-2.41;87.58;93771.58;106852;1276;22638;-79
2023/11/28 06:33:44;;;;;;;46.30;22.80;;;;;;;-2.40;87.40;93771.23;107021;1276;24221;-81
2023/11/28 06:36:13;;;;;;;56.80;26.60;;;;;;;-2.42;87.50;93762.96;106974;1276;23254;-79
2023/11/28 06:38:41;;;;;;;37.30;18.60;;;;;;;-2.38;87.53;93762.62;107046;1276;22788;-78
2023/11/28 06:41:09;;;;;;;27.80;16.20;;;;;;;-2.42;87.50;93759.34;106892;1276;23878;-79
2023/11/28 06:43:38;;;;;;;52.50;26.30;;;;;;;-2.38;87.64;93756.94;106863;1265;22532;-77
2023/11/28 06:46:06;;;;;;;71.30;35.70;;;;;;;-2.36;87.53;93749.02;107023;1276;22850;-79
2023/11/28 06:48:37;;;;;;;61.50;29.00;;;;;;;-2.35;87.33;93745.92;107089;1260;22660;-78
2023/11/28 06:51:07;;;;;;;26.50;14.90;;;;;;;-2.34;87.46;93743.17;107801;1276;24379;-77
2023/11/28 06:53:35;;;;;;;36.00;19.30;;;;;;;-2.31;87.71;93735.59;106975;1276;22649;-77
2023/11/28 06:56:04;;;;;;;31.20;16.50;;;;;;;-2.29;87.67;93724.76;107204;1266;25431;-79
2023/11/28 06:58:32;;;;;;;24.50;14.30;;;;;;;-2.25;87.60;93733.20;106990;1276;243341;-77
2023/11/28 07:01:00;;;;;;;22.50;12.20;;;;;;;-2.15;87.59;93726.64;106948;1276;23097;-77
2023/11/28 07:03:31;;;;;;;25.30;14.20;;;;;;;-2.12;87.33;93720.10;107060;1276;24468;-77
2023/11/28 07:06:00;;;;;;;42.60;23.60;;;;;;;-2.07;87.46;93721.30;107106;1276;24340;-78
2023/11/28 07:08:28;;;;;;;25.80;14.70;;;;;;;-2.04;87.37;93715.79;107058;1276;22536;-78
2023/11/28 07:10:56;;;;;;;34.70;19.70;;;;;;;-1.97;87.30;93709.73;107000;1276;24275;-78
2023/11/28 07:13:25;;;;;;;28.10;14.60;;;;;;;-1.91;87.25;93714.91;107041;1276;22749;-79
2023/11/28 07:15:53;;;;;;;51.10;28.80;;;;;;;-1.82;87.26;93704.21;106944;1276;22538;-79
2023/11/28 07:18:22;;;;;;;33.80;20.40;;;;;;;-1.75;87.09;93702.45;107055;1276;22620;-80
2023/11/28 07:20:50;;;;;;;32.50;18.60;;;;;;;-1.65;87.13;93702.45;107150;1273;22551;-79
2023/11/28 07:23:19;;;;;;;31.20;18.60;;;;;;;-1.56;86.96;93700.34;106946;1275;25392;-78
2023/11/28 07:25:48;;;;;;;23.60;13.40;;;;;;;-1.48;86.54;93698.08;107047;1275;23754;-78
2023/11/28 07:28:16;;;;;;;90.10;54.60;;;;;;;-1.44;86.16;93689.27;106906;1275;22527;-78
2023/11/28 07:30:45;;;;;;;28.10;15.10;;;;;;;-1.33;86.34;93689.75;106940;1275;25294;-78
2023/11/28 07:33:14;;;;;;;21.40;13.30;;;;;;;-1.20;86.70;93686.25;107034;1275;22510;-77
2023/11/28 07:35:42;;;;;;;43.30;25.20;;;;;;;-1.07;86.09;93683.76;107122;1263;22553;-78
2023/11/28 07:38:10;;;;;;;51.40;32.90;;;;;;;-0.97;86.09;93679.39;106755;1275;22523;-79
2023/11/28 07:40:40;;;;;;;31.90;19.30;;;;;;;-0.91;85.37;93682.64;106854;1275;22657;-77
2023/11/28 07:43:09;;;;;;;32.70;19.10;;;;;;;-0.80;85.78;93687.58;107046;1275;25350;-79
2023/11/28 07:45:37;;;;;;;38.90;22.80;;;;;;;-0.70;85.08;93685.79;107216;1275;24436;-78
2023/11/28 07:48:05;;;;;;;19.60;11.80;;;;;;;-0.65;84.43;93683.69;106740;1275;22803;-78
2023/11/28 07:50:34;;;;;;;22.90;13.90;;;;;;;-0.60;84.05;93683.13;106799;1275;25424;-78
2023/11/28 07:53:03;;;;;;;18.80;13.10;;;;;;;-0.53;84.59;93684.30;106867;1275;24279;-77
2023/11/28 07:55:31;;;;;;;18.40;10.90;;;;;;;-0.47;84.45;93684.60;106924;1275;25465;-78
2023/11/28 07:58:00;;;;;;;24.70;16.60;;;;;;;-0.43;83.54;93683.02;106746;1275;22530;-79
2023/11/28 08:00:32;;;;;;;25.60;15.40;;;;;;;-0.44;83.44;93679.05;107007;1275;24219;-78
2023/11/28 08:03:02;;;;;;;18.20;11.40;;;;;;;-0.48;82.99;93674.08;106993;1275;22643;-79
2023/11/28 08:05:31;;;;;;;18.20;12.30;;;;;;;-0.47;83.11;93672.52;107133;1253;23103;-80
2023/11/28 08:08:00;;;;;;;18.80;12.40;;;;;;;-0.49;83.29;93676.14;106992;1275;25351;-78
2023/11/28 08:10:28;;;;;;;22.50;13.60;;;;;;;-0.45;83.57;93670.23;106969;1275;22530;-78
2023/11/28 08:12:57;;;;;;;18.20;11.30;;;;;;;-0.45;83.20;93666.11;106973;1275;23883;-78
2023/11/28 08:15:25;;;;;;;15.70;10.00;;;;;;;-0.44;83.46;93657.29;106864;1275;23877;-78
2023/11/28 08:17:54;;;;;;;15.70;9.40;;;;;;;-0.39;83.52;93654.30;106685;1275;22551;-77
2023/11/28 08:20:23;;;;;;;16.10;10.00;;;;;;;-0.33;83.71;93641.83;107058;1275;22520;-78
2023/11/28 08:22:51;;;;;;;14.60;9.20;;;;;;;-0.26;83.53;93640.73;107219;1275;24238;-78
2023/11/28 08:25:20;;;;;;;17.70;9.90;;;;;;;-0.19;83.55;93642.75;107073;1275;25418;-78
2023/11/28 08:27:48;;;;;;;23.30;14.80;;;;;;;-0.12;83.45;93642.51;107089;1275;24720;-78
2023/11/28 08:30:16;;;;;;;13.40;9.70;;;;;;;-0.07;83.17;93641.60;107154;1275;25471;-78
2023/11/28 08:32:45;;;;;;;17.80;11.00;;;;;;;-0.00;83.27;93639.46;107027;1275;25354;-78
2023/11/28 08:35:13;;;;;;;20.40;10.30;;;;;;;0.04;82.94;93633.19;107217;1275;25286;-77
2023/11/28 08:37:42;;;;;;;27.30;14.50;;;;;;;0.04;82.42;93629.04;107157;1275;22531;-78
2023/11/28 08:40:12;;;;;;;17.20;10.70;;;;;;;0.13;82.62;93627.40;107294;1275;22537;-79
2023/11/28 08:42:40;;;;;;;18.70;11.30;;;;;;;0.23;82.64;93619.33;108266;1275;25192;-75
2023/11/28 08:45:09;;;;;;;15.90;9.60;;;;;;;0.33;82.44;93620.08;107185;1275;22560;-77
2023/11/28 08:47:38;;;;;;;18.30;11.70;;;;;;;0.43;82.36;93625.16;106912;1256;25374;-81
2023/11/28 08:50:07;;;;;;;17.60;10.90;;;;;;;0.48;81.62;93628.05;107247;1275;24372;-77
2023/11/28 08:52:35;;;;;;;18.90;11.90;;;;;;;0.41;81.09;93623.63;107058;1275;23756;-77
2023/11/28 08:55:05;;;;;;;25.50;14.90;;;;;;;0.43;81.08;93629.48;107041;1275;24326;-79
2023/11/28 08:57:34;;;;;;;24.90;14.90;;;;;;;0.31;80.87;93612.84;107036;1275;22694;-77
2023/11/28 09:00:04;;;;;;;18.40;11.10;;;;;;;0.25;81.04;93599.25;107163;1275;22700;-77
2023/11/28 09:02:35;;;;;;;22.20;13.20;;;;;;;0.21;81.30;93604.14;107235;1275;22527;-77
2023/11/28 09:05:04;;;;;;;25.10;15.40;;;;;;;0.14;81.18;93598.35;107324;1275;25253;-77
2023/11/28 09:07:33;;;;;;;21.50;13.60;;;;;;;0.07;81.38;93584.92;106893;1275;22648;-79
2023/11/28 09:10:01;;;;;;;24.10;14.10;;;;;;;0.02;81.48;93581.70;107033;1274;23778;-78
2023/11/28 09:12:29;;;;;;;19.40;11.70;;;;;;;-0.12;81.98;93586.70;107026;1274;22926;-77
2023/11/28 09:14:58;;;;;;;32.70;16.00;;;;;;;-0.13;82.06;93586.52;106918;1274;25293;-77
2023/11/28 09:17:26;;;;;;;44.40;20.80;;;;;;;-0.15;82.25;93580.48;107128;1274;24206;-79
2023/11/28 09:19:55;;;;;;;27.60;16.30;;;;;;;-0.12;82.28;93576.66;107054;1274;22653;-77
2023/11/28 09:22:24;;;;;;;18.20;10.50;;;;;;;-0.08;82.46;93566.77;106939;1274;25345;-77
2023/11/28 09:24:52;;;;;;;18.10;12.30;;;;;;;-0.10;82.26;93565.92;106866;1274;23068;-77
2023/11/28 09:27:20;;;;;;;16.20;10.30;;;;;;;-0.12;82.23;93561.11;107028;1274;25366;-76
2023/11/28 09:29:48;;;;;;;20.20;11.80;;;;;;;-0.16;82.55;93556.83;107238;1274;24267;-77
2023/11/28 09:32:19;;;;;;;16.30;10.40;;;;;;;-0.15;82.83;93543.87;109410;1274;22596;-76
2023/11/28 09:34:47;;;;;;;23.40;12.30;;;;;;;-0.18;82.92;93540.27;107292;1274;24040;-80
2023/11/28 09:37:16;;;;;;;31.00;15.90;;;;;;;-0.17;82.87;93544.07;107155;1274;22535;-78
2023/11/28 09:39:44;;;;;;;52.30;25.30;;;;;;;-0.15;82.93;93532.79;107005;1272;22535;-77
2023/11/28 09:42:14;;;;;;;47.50;23.90;;;;;;;-0.14;83.12;93535.38;106992;1275;25302;-78
2023/11/28 09:44:45;;;;;;;37.00;20.20;;;;;;;-0.08;83.04;93525.98;107178;1275;22523;-77
2023/11/28 09:47:17;;;;;;;32.80;17.20;;;;;;;-0.01;83.30;93517.27;107026;1275;22527;-77
2023/11/28 09:49:49;;;;;;;62.60;31.00;;;;;;;0.06;83.03;93513.55;107454;1274;22649;-78
2023/11/28 09:52:20;;;;;;;54.60;26.30;;;;;;;0.03;83.07;93518.10;107451;1274;22530;-79
2023/11/28 09:54:53;;;;;;;49.70;23.90;;;;;;;0.10;83.11;93518.69;107166;1274;24448;-76
2023/11/28 09:57:22;;;;;;;21.00;12.10;;;;;;;0.19;82.87;93506.65;107059;1274;25412;-77
2023/11/28 09:59:54;;;;;;;15.00;9.50;;;;;;;0.33;83.13;93497.13;106942;1274;25427;-77
2023/11/28 10:02:27;;;;;;;15.90;9.90;;;;;;;0.46;82.87;93493.85;106995;1274;24394;-76
2023/11/28 10:04:56;;;;;;;16.60;10.30;;;;;;;0.50;82.54;93494.83;107272;1274;22544;-80
2023/11/28 10:07:33;;;;;;;12.90;9.40;;;;;;;0.56;82.70;93486.11;107020;1274;22551;-79
2023/11/28 10:10:07;;;;;;;15.00;9.00;;;;;;;0.57;82.43;93479.50;107180;1274;24335;-78
2023/11/28 10:12:38;;;;;;;12.80;8.60;;;;;;;0.58;81.90;93471.52;107318;1274;24209;-79
2023/11/28 10:15:08;;;;;;;14.30;9.20;;;;;;;0.55;81.56;93462.58;107116;1274;26433;-77
2023/11/28 10:17:37;;;;;;;24.50;15.30;;;;;;;0.50;81.37;93452.44;107065;1274;22534;-79
2023/11/28 10:20:07;;;;;;;20.30;11.50;;;;;;;0.47;81.51;93443.33;107058;1274;22527;-79
2023/11/28 10:22:36;;;;;;;26.40;13.90;;;;;;;0.46;81.68;93439.54;106918;1274;24410;-79
2023/11/28 10:25:12;;;;;;;34.60;17.70;;;;;;;0.34;81.76;93436.08;106827;1274;23891;-78
2023/11/28 10:27:41;;;;;;;23.30;13.50;;;;;;;0.35;82.02;93429.31;107015;1274;22647;-77
2023/11/28 10:30:11;;;;;;;16.10;9.50;;;;;;;0.39;82.34;93419.92;107094;1274;22528;-76
2023/11/28 10:32:39;;;;;;;21.90;13.30;;;;;;;0.41;81.88;93414.19;107088;1274;25252;-76
2023/11/28 10:35:08;;;;;;;30.60;13.80;;;;;;;0.45;82.02;93413.09;107007;1274;24272;-77
2023/11/28 10:37:38;;;;;;;30.00;15.30;;;;;;;0.45;81.90;93411.00;106928;1274;24227;-77
2023/11/28 10:40:13;;;;;;;28.00;13.80;;;;;;;0.40;81.79;93400.36;106751;1274;22638;-77
2023/11/28 10:42:42;;;;;;;32.20;15.30;;;;;;;0.44;81.81;93385.42;107103;1274;22528;-77
2023/11/28 10:45:13;;;;;;;32.50;15.70;;;;;;;0.45;81.77;93383.86;106786;1251;22517;-77
2023/11/28 10:47:43;;;;;;;43.40;21.40;;;;;;;0.53;81.86;93374.91;106813;1274;22850;-76
2023/11/28 10:50:13;;;;;;;27.30;14.80;;;;;;;0.61;81.85;93360.77;106808;1274;22533;-76
2023/11/28 10:52:45;;;;;;;48.40;22.30;;;;;;;0.74;81.72;93355.88;106820;1260;25357;-77
2023/11/28 10:55:19;;;;;;;47.20;17.90;;;;;;;0.81;81.24;93354.02;106829;1274;22646;-76
2023/11/28 10:57:53;;;;;;;40.30;17.70;;;;;;;0.85;80.96;93348.23;107034;1256;22531;-77
2023/11/28 11:00:25;;;;;;;33.20;17.70;;;;;;;0.91;80.79;93345.88;106817;1272;22736;-76
2023/11/28 11:02:55;;;;;;;29.90;14.30;;;;;;;0.97;80.60;93339.91;106796;1263;24217;-77
2023/11/28 11:05:25;;;;;;;26.30;14.40;;;;;;;1.06;80.45;93331.59;107044;1274;25353;-77
2023/11/28 11:07:55;;;;;;;27.20;14.30;;;;;;;1.16;79.97;93323.09;106781;1274;22533;-77
2023/11/28 11:10:24;;;;;;;40.50;19.50;;;;;;;1.19;79.40;93316.44;106835;1274;25490;-77
2023/11/28 11:13:20;;;;;;;35.20;16.40;;;;;;;1.26;79.33;93314.93;106660;1274;22532;-77
2023/11/28 11:16:12;;;;;;;26.50;13.00;;;;;;;1.36;78.85;93311.78;106795;1263;22537;-77
2023/11/28 11:18:52;;;;;;;38.50;17.90;;;;;;;1.45;78.87;93305.20;106713;1274;22526;-77
2023/11/28 11:21:20;;;;;;;28.00;14.60;;;;;;;1.47;78.46;93302.55;107053;1274;24202;-77